Time;durP1;ratioP1;P1;durP2;ratioP2;P2;SDS_P1;SDS_P2;PMS_P1;PMS_P2;Temp;Humidity;BMP_temperature;BMP_pressure;BME280_temperature;BME280_humidity;BME280_pressure;Samples;Min_cycle;Max_cycle;Signal;HPM_P1;HPM_P2
2022/08/12 00:44:32;;;;;;;4.53;1.90;;;22.60;99.90;;;;;;5110602;28;20658;-68
2022/08/12 00:47:00;;;;;;;3.10;1.80;;;22.60;99.90;;;;;;5111709;28;20468;-69
2022/08/12 00:49:27;;;;;;;3.90;1.50;;;22.60;99.90;;;;;;5111474;28;20400;-68
2022/08/12 00:52:05;;;;;;;3.10;1.70;;;22.60;99.90;;;;;;5111766;28;20436;-68
2022/08/12 00:54:38;;;;;;;2.60;1.67;;;22.40;99.90;;;;;;5112177;28;20463;-68
2022/08/12 00:57:08;;;;;;;3.67;2.00;;;22.40;99.90;;;;;;5111871;28;20393;-68
2022/08/12 00:59:35;;;;;;;1.83;1.63;;;22.40;99.90;;;;;;5112977;28;20641;-68
2022/08/12 01:02:03;;;;;;;2.90;1.70;;;22.40;99.90;;;;;;5113765;28;20384;-68
2022/08/12 01:12:45;;;;;;;2.65;1.60;;;22.30;99.90;;;;;;5111775;28;20473;-68
2022/08/12 01:15:13;;;;;;;4.25;1.90;;;22.20;99.90;;;;;;5112774;27;20479;-70
2022/08/12 01:17:43;;;;;;;2.38;1.60;;;22.10;99.90;;;;;;5111117;28;20473;-68
2022/08/12 01:20:17;;;;;;;3.10;1.60;;;22.10;99.90;;;;;;5110515;28;20665;-67
2022/08/12 01:23:23;;;;;;;3.38;1.52;;;22.10;99.90;;;;;;5111503;28;20784;-67
2022/08/12 01:25:51;;;;;;;4.20;1.77;;;22.00;99.90;;;;;;5077344;28;20611;-69
2022/08/12 01:28:20;;;;;;;2.17;1.70;;;22.00;99.90;;;;;;5111232;28;20782;-69
2022/08/12 01:30:48;;;;;;;2.30;1.50;;;22.00;99.90;;;;;;5108670;28;20388;-69
2022/08/12 01:33:16;;;;;;;1.75;1.52;;;21.90;99.90;;;;;;5109960;28;20384;-69
2022/08/12 01:35:53;;;;;;;6.50;1.80;;;21.80;99.90;;;;;;5109742;28;20413;-69
2022/08/12 01:38:20;;;;;;;3.42;1.67;;;21.70;99.90;;;;;;5111933;28;20780;-69
2022/08/12 01:40:46;;;;;;;2.42;1.90;;;21.70;99.90;;;;;;5110066;28;20446;-69
2022/08/12 01:43:21;;;;;;;3.10;1.70;;;21.70;99.90;;;;;;5108093;28;20455;-68
2022/08/12 01:46:00;;;;;;;3.30;2.00;;;21.60;99.90;;;;;;5109253;28;20411;-69
2022/08/12 01:48:28;;;;;;;2.67;1.67;;;21.60;99.90;;;;;;5110600;28;20787;-69
2022/08/12 01:51:03;;;;;;;3.22;1.70;;;21.50;99.90;;;;;;5110617;28;20503;-69
2022/08/12 01:53:45;;;;;;;2.45;1.60;;;21.50;99.90;;;;;;5109382;28;20711;-69
2022/08/12 01:56:13;;;;;;;2.97;1.70;;;21.50;99.90;;;;;;5112120;28;20754;-69
2022/08/12 02:01:34;;;;;;;3.00;2.03;;;21.40;99.90;;;;;;5109706;28;20396;-69
2022/08/12 02:12:53;;;;;;;2.85;1.70;;;21.00;99.90;;;;;;5108820;28;20710;-69
2022/08/12 02:15:37;;;;;;;2.63;2.00;;;21.10;99.90;;;;;;5107964;28;20384;-68
2022/08/12 02:18:09;;;;;;;3.10;1.70;;;21.00;99.90;;;;;;5108042;28;20383;-68
2022/08/12 02:21:04;;;;;;;2.78;1.90;;;21.00;99.90;;;;;;5108017;28;20473;-69
2022/08/12 02:23:31;;;;;;;3.95;1.90;;;21.00;99.90;;;;;;5109446;28;20391;-68
2022/08/12 02:26:06;;;;;;;3.13;1.75;;;21.00;99.90;;;;;;5109344;28;20396;-68
2022/08/12 02:28:32;;;;;;;3.50;1.90;;;20.90;99.90;;;;;;5109285;28;20415;-68
2022/08/12 02:31:03;;;;;;;2.42;1.70;;;20.90;99.90;;;;;;5109056;28;20385;-68
2022/08/12 02:33:30;;;;;;;2.28;1.83;;;20.90;99.90;;;;;;5113094;28;20617;-68
2022/08/12 02:35:56;;;;;;;3.08;1.88;;;20.80;99.90;;;;;;5111331;28;20453;-68
2022/08/12 02:38:25;;;;;;;2.40;1.85;;;20.70;99.90;;;;;;5111934;28;20757;-67
2022/08/12 02:40:53;;;;;;;2.10;1.90;;;20.70;99.90;;;;;;5109918;28;20392;-69
2022/08/12 02:43:49;;;;;;;5.73;1.93;;;20.60;99.90;;;;;;5111018;28;20372;-69
2022/08/12 02:46:19;;;;;;;3.75;1.63;;;20.70;99.90;;;;;;5108914;28;20977;-69
2022/08/12 02:48:51;;;;;;;4.18;2.13;;;20.70;99.90;;;;;;5107414;28;20384;-68
2022/08/12 02:51:22;;;;;;;2.17;1.90;;;20.60;99.90;;;;;;5108680;28;20406;-68
2022/08/12 02:53:50;;;;;;;2.90;1.75;;;20.60;99.90;;;;;;5108382;28;20441;-68
2022/08/12 02:56:16;;;;;;;4.13;1.97;;;20.60;99.90;;;;;;5109573;28;20799;-69
2022/08/12 02:58:44;;;;;;;3.80;2.00;;;20.50;99.90;;;;;;5110955;28;20382;-68
2022/08/12 03:01:11;;;;;;;3.40;1.73;;;20.40;99.90;;;;;;5110348;28;20369;-69
2022/08/12 03:03:38;;;;;;;4.53;1.92;;;20.40;99.90;;;;;;5112855;28;20709;-68
2022/08/12 03:06:19;;;;;;;4.25;1.85;;;20.50;99.90;;;;;;5117355;28;20384;-68
2022/08/12 03:08:47;;;;;;;3.03;1.88;;;20.50;99.90;;;;;;5115742;28;20456;-68
2022/08/12 03:11:18;;;;;;;3.07;1.80;;;20.50;99.90;;;;;;5118341;28;20756;-69
2022/08/12 03:13:53;;;;;;;2.35;1.88;;;20.50;99.90;;;;;;5116201;28;20471;-68
2022/08/12 03:16:20;;;;;;;4.45;1.92;;;20.40;99.90;;;;;;5112441;28;20460;-68
2022/08/12 03:18:47;;;;;;;3.03;1.77;;;20.30;99.90;;;;;;5113457;28;20372;-69
2022/08/12 03:21:16;;;;;;;3.30;1.85;;;20.30;99.90;;;;;;5113686;28;20471;-68
2022/08/12 03:23:45;;;;;;;2.17;2.03;;;20.40;99.90;;;;;;5112274;28;20489;-68
2022/08/12 03:26:11;;;;;;;3.30;2.00;;;20.40;99.90;;;;;;5110330;28;20400;-69
2022/08/12 03:28:49;;;;;;;2.30;2.03;;;20.30;99.90;;;;;;5110536;28;20649;-68
2022/08/12 03:31:16;;;;;;;2.50;2.13;;;20.20;99.90;;;;;;5111771;28;20445;-70
2022/08/12 03:33:44;;;;;;;3.53;2.10;;;20.20;99.90;;;;;;5113172;28;20392;-69
2022/08/12 03:36:16;;;;;;;5.00;2.03;;;20.20;99.90;;;;;;5112705;28;20404;-69
2022/08/12 03:38:57;;;;;;;2.50;1.85;;;20.10;99.90;;;;;;5114299;28;20796;-69
2022/08/12 03:41:36;;;;;;;5.50;1.97;;;20.20;99.90;;;;;;5113222;28;20407;-69
2022/08/12 04:00:55;;;;;;;4.30;2.30;;;19.80;99.90;;;;;;5109400;28;20425;-68
2022/08/12 04:06:08;;;;;;;4.22;2.25;;;19.80;99.90;;;;;;5111178;28;20395;-69
2022/08/12 04:08:35;;;;;;;4.45;2.30;;;19.80;99.90;;;;;;5111592;28;20411;-68
2022/08/12 04:13:47;;;;;;;3.35;2.17;;;19.80;99.90;;;;;;5112482;28;20648;-69
2022/08/12 04:16:14;;;;;;;4.57;2.13;;;19.80;99.90;;;;;;5111974;28;20435;-68
2022/08/12 04:18:41;;;;;;;2.40;2.17;;;19.80;99.90;;;;;;5111813;27;20380;-68
2022/08/12 04:21:09;;;;;;;2.83;2.10;;;19.70;99.90;;;;;;5109459;28;20459;-69
2022/08/12 04:23:42;;;;;;;5.65;2.30;;;19.80;99.90;;;;;;5110838;28;20499;-69
2022/08/12 04:26:09;;;;;;;3.47;2.38;;;19.70;99.90;;;;;;5109326;28;20400;-68
2022/08/12 04:28:34;;;;;;;3.75;2.15;;;19.70;99.90;;;;;;5109415;28;20733;-68
2022/08/12 04:31:00;;;;;;;4.20;2.20;;;19.70;99.90;;;;;;5108624;28;20803;-69
2022/08/12 04:33:26;;;;;;;4.97;2.43;;;19.70;99.90;;;;;;5106504;28;20429;-68
2022/08/12 04:35:53;;;;;;;3.65;2.60;;;19.70;99.90;;;;;;5106045;28;20532;-69
2022/08/12 04:38:19;;;;;;;5.15;2.40;;;19.60;99.90;;;;;;5108366;28;20718;-69
2022/08/12 04:40:45;;;;;;;3.63;2.53;;;19.60;99.90;;;;;;5105743;28;20407;-69
2022/08/12 04:43:11;;;;;;;4.07;2.70;;;19.60;99.90;;;;;;5104512;28;20384;-69
2022/08/12 04:45:38;;;;;;;4.75;2.90;;;19.60;99.90;;;;;;5104273;28;20387;-69
2022/08/12 04:48:05;;;;;;;4.07;2.90;;;19.60;99.90;;;;;;5104305;28;20423;-69
2022/08/12 04:50:31;;;;;;;3.63;2.60;;;19.60;99.90;;;;;;5103380;28;20608;-68
2022/08/12 04:52:59;;;;;;;4.50;2.67;;;19.70;99.90;;;;;;5105581;28;20859;-68
2022/08/12 04:55:25;;;;;;;2.90;2.20;;;19.70;99.90;;;;;;5103161;28;20407;-69
2022/08/12 04:57:52;;;;;;;5.57;2.45;;;19.60;99.90;;;;;;5102199;28;20722;-69
2022/08/12 05:00:18;;;;;;;4.32;2.63;;;19.50;99.90;;;;;;5101291;28;20526;-69
2022/08/12 05:02:44;;;;;;;3.75;2.30;;;19.70;99.90;;;;;;5100598;28;20467;-69
2022/08/12 05:05:18;;;;;;;6.00;2.28;;;19.70;99.90;;;;;;5101803;28;20777;-69
2022/08/12 05:07:44;;;;;;;4.07;2.97;;;19.70;99.90;;;;;;5102067;28;20376;-68
2022/08/12 05:10:09;;;;;;;4.90;3.10;;;19.70;99.90;;;;;;5103278;28;20396;-68
2022/08/12 05:12:44;;;;;;;5.20;2.90;;;19.70;99.90;;;;;;5103991;28;20417;-68
2022/08/12 05:15:13;;;;;;;3.50;2.50;;;19.80;99.90;;;;;;5101809;28;20947;-69
2022/08/12 05:17:40;;;;;;;3.78;2.63;;;19.90;99.90;;;;;;5103784;28;20376;-68
2022/08/12 05:20:10;;;;;;;5.82;2.53;;;19.90;99.90;;;;;;5106159;28;20387;-70
2022/08/12 05:22:37;;;;;;;4.57;2.80;;;19.90;99.90;;;;;;5104511;28;20475;-69
2022/08/12 05:25:05;;;;;;;5.03;2.77;;;19.90;99.90;;;;;;5105308;28;20728;-68
2022/08/12 05:27:31;;;;;;;3.63;2.80;;;19.90;99.90;;;;;;5105553;28;20380;-68
2022/08/12 05:29:57;;;;;;;7.65;2.60;;;19.90;99.90;;;;;;5108794;28;20408;-69
2022/08/12 05:32:24;;;;;;;4.20;2.73;;;19.90;99.90;;;;;;5108581;28;20384;-69
2022/08/12 05:34:52;;;;;;;5.88;2.90;;;20.00;99.90;;;;;;5106100;28;20742;-69
2022/08/12 05:37:17;;;;;;;4.63;2.42;;;20.00;99.90;;;;;;5103871;28;20377;-68
2022/08/12 05:39:44;;;;;;;4.43;2.30;;;20.00;99.90;;;;;;5100880;28;20619;-68
2022/08/12 05:42:10;;;;;;;3.10;2.40;;;20.00;99.90;;;;;;5101120;28;20415;-68
2022/08/12 05:44:35;;;;;;;5.00;2.67;;;20.10;99.90;;;;;;5099957;28;20389;-68
2022/08/12 05:47:01;;;;;;;5.05;3.00;;;20.20;99.90;;;;;;5101795;28;20481;-68
2022/08/12 05:49:28;;;;;;;6.63;2.42;;;20.20;99.90;;;;;;5100650;28;20391;-68
2022/08/12 05:51:54;;;;;;;4.07;2.47;;;20.20;99.90;;;;;;5103407;28;20622;-68
2022/08/12 05:54:20;;;;;;;3.30;2.40;;;20.20;99.90;;;;;;5105063;27;20815;-68
2022/08/12 05:56:45;;;;;;;3.42;2.22;;;20.20;99.90;;;;;;5104847;28;20396;-68
2022/08/12 05:59:11;;;;;;;4.22;2.40;;;20.30;99.90;;;;;;5104929;28;20471;-69
2022/08/12 06:01:38;;;;;;;3.60;2.50;;;20.40;99.90;;;;;;5104824;28;20388;-68
2022/08/12 06:04:04;;;;;;;2.60;2.28;;;20.40;99.90;;;;;;5107635;28;20441;-68
2022/08/12 06:06:40;;;;;;;5.22;2.55;;;20.50;99.90;;;;;;5102639;28;20372;-68
2022/08/12 06:09:09;;;;;;;3.97;2.38;;;20.50;99.90;;;;;;5103248;28;20388;-68
2022/08/12 06:11:36;;;;;;;4.40;2.40;;;20.60;99.90;;;;;;5103646;28;20407;-68
2022/08/12 06:14:01;;;;;;;3.78;2.40;;;20.60;99.90;;;;;;5102898;28;20666;-68
2022/08/12 06:16:27;;;;;;;2.30;2.10;;;20.70;99.90;;;;;;5099779;28;20793;-68
2022/08/12 06:18:53;;;;;;;3.10;2.30;;;20.70;99.90;;;;;;5099062;28;20718;-68
2022/08/12 06:21:22;;;;;;;3.55;2.35;;;20.80;99.90;;;;;;5100040;28;20448;-68
2022/08/12 06:23:48;;;;;;;3.90;2.10;;;20.80;99.90;;;;;;5097687;28;20957;-68
2022/08/12 06:26:17;;;;;;;4.40;2.30;;;20.80;99.90;;;;;;5097791;28;20583;-68
2022/08/12 06:28:44;;;;;;;2.93;2.00;;;20.80;99.90;;;;;;5095739;28;21136;-68
2022/08/12 06:31:15;;;;;;;3.78;2.15;;;20.90;99.90;;;;;;5094510;28;20396;-68
2022/08/12 06:33:46;;;;;;;4.25;2.25;;;20.90;99.90;;;;;;5096048;28;20763;-68
2022/08/12 06:36:12;;;;;;;3.20;2.13;;;21.00;99.90;;;;;;5095363;28;20491;-68
2022/08/12 06:38:39;;;;;;;2.57;2.20;;;21.00;99.90;;;;;;5093409;28;20415;-68
2022/08/12 06:43:52;;;;;;;3.30;2.00;;;21.10;99.90;;;;;;5094926;28;20949;-68
2022/08/12 06:46:27;;;;;;;3.67;1.77;;;21.10;99.90;;;;;;5096276;28;20377;-68
2022/08/12 06:48:57;;;;;;;1.90;1.70;;;21.10;99.90;;;;;;5098147;28;20496;-68
2022/08/12 06:51:25;;;;;;;2.90;1.88;;;21.20;99.90;;;;;;5096545;28;20394;-68
2022/08/12 06:53:50;;;;;;;3.57;2.03;;;21.30;99.90;;;;;;5096251;28;20372;-68
2022/08/12 06:56:16;;;;;;;2.37;1.70;;;21.40;99.90;;;;;;5097729;28;20523;-68
2022/08/12 06:58:43;;;;;;;2.97;1.90;;;21.40;99.90;;;;;;5099734;28;21068;-68
2022/08/12 07:01:09;;;;;;;3.75;2.08;;;21.50;99.90;;;;;;5098695;28;20380;-68
2022/08/12 07:03:35;;;;;;;2.57;1.80;;;21.50;99.90;;;;;;5098738;28;20384;-68
2022/08/12 07:06:04;;;;;;;2.90;2.20;;;21.50;99.90;;;;;;5099052;28;20380;-69
2022/08/12 07:08:34;;;;;;;2.57;2.10;;;21.60;99.90;;;;;;5099478;28;20860;-68
2022/08/12 07:11:02;;;;;;;2.08;1.65;;;21.60;99.90;;;;;;5099138;28;20403;-68
2022/08/12 07:13:42;;;;;;;1.87;1.67;;;21.70;99.90;;;;;;5099706;28;20420;-68
2022/08/12 07:16:13;;;;;;;2.50;1.90;;;21.70;99.90;;;;;;5099063;28;20383;-68
2022/08/12 07:18:40;;;;;;;2.00;1.80;;;21.80;99.90;;;;;;5098227;28;20791;-68
2022/08/12 07:21:07;;;;;;;2.95;2.00;;;21.80;99.90;;;;;;5096404;28;20783;-68
2022/08/12 07:23:35;;;;;;;2.77;1.80;;;21.90;99.90;;;;;;5094561;28;20400;-68
2022/08/12 07:26:03;;;;;;;2.70;1.80;;;21.90;99.90;;;;;;5095144;28;20410;-68
2022/08/12 07:28:33;;;;;;;2.10;1.73;;;22.00;99.90;;;;;;5095352;28;20652;-68
2022/08/12 07:31:00;;;;;;;1.75;1.65;;;22.00;99.90;;;;;;5095126;28;20399;-68
2022/08/12 07:33:27;;;;;;;2.63;1.70;;;22.10;99.90;;;;;;5095963;28;20765;-68
2022/08/12 07:35:55;;;;;;;1.88;1.70;;;22.10;99.90;;;;;;5094374;28;20851;-68
2022/08/12 07:38:32;;;;;;;2.70;1.80;;;22.10;99.90;;;;;;5096952;28;20408;-68
2022/08/12 07:41:21;;;;;;;2.47;1.63;;;22.20;99.90;;;;;;5095244;28;20767;-68
2022/08/12 07:44:04;;;;;;;3.20;2.08;;;22.20;99.90;;;;;;5094050;28;20595;-68
2022/08/12 07:46:42;;;;;;;3.03;1.90;;;22.30;99.90;;;;;;5094914;28;20453;-68
2022/08/12 07:49:15;;;;;;;2.20;2.00;;;22.30;99.90;;;;;;5091809;28;20544;-69
2022/08/12 07:51:43;;;;;;;1.98;1.70;;;22.40;99.90;;;;;;5094207;28;20406;-69
2022/08/12 07:54:10;;;;;;;5.13;2.50;;;22.40;99.90;;;;;;5092058;28;20387;-69
2022/08/12 07:56:38;;;;;;;2.20;2.00;;;22.50;99.90;;;;;;5094051;28;21252;-68
2022/08/12 07:59:05;;;;;;;1.73;1.50;;;22.50;99.90;;;;;;5093295;28;20388;-68
2022/08/12 08:01:31;;;;;;;2.50;1.98;;;22.60;99.90;;;;;;5094904;28;20471;-67
2022/08/12 08:06:43;;;;;;;2.50;2.20;;;22.70;99.90;;;;;;5092542;28;20486;-67
2022/08/12 08:09:13;;;;;;;3.13;2.35;;;22.70;99.90;;;;;;5087337;28;20510;-68
2022/08/12 08:14:30;;;;;;;1.98;1.52;;;22.80;99.90;;;;;;5095123;28;20440;-68
2022/08/12 08:16:58;;;;;;;1.55;1.45;;;22.90;99.90;;;;;;5096178;28;20380;-68
2022/08/12 08:19:25;;;;;;;4.17;2.60;;;22.90;99.90;;;;;;5094953;28;20476;-67
2022/08/12 08:21:53;;;;;;;3.33;3.03;;;23.00;99.90;;;;;;5097303;28;20384;-67
2022/08/12 08:24:23;;;;;;;3.20;2.80;;;23.00;99.90;;;;;;5098936;28;20619;-67
2022/08/12 08:26:50;;;;;;;2.40;2.20;;;23.10;99.90;;;;;;5100056;28;20745;-68
2022/08/12 08:29:20;;;;;;;2.75;1.98;;;23.10;99.90;;;;;;5098873;28;20483;-68
2022/08/12 08:31:49;;;;;;;1.98;1.88;;;23.20;99.90;;;;;;5098620;28;20508;-68
2022/08/12 08:34:18;;;;;;;3.80;2.20;;;23.20;99.90;;;;;;5106941;28;21011;-67
2022/08/12 08:36:44;;;;;;;3.58;2.00;;;23.30;99.90;;;;;;5107232;28;20404;-67
2022/08/12 08:39:11;;;;;;;2.30;1.85;;;23.30;99.90;;;;;;5106147;28;20987;-67
2022/08/12 08:44:22;;;;;;;3.25;2.10;;;23.40;99.90;;;;;;5106909;28;20480;-68
2022/08/12 08:46:48;;;;;;;2.85;2.05;;;23.50;99.90;;;;;;5104554;28;20466;-68
2022/08/12 08:49:15;;;;;;;2.00;1.80;;;23.50;99.90;;;;;;5106958;28;20383;-68
2022/08/12 08:51:43;;;;;;;1.85;1.70;;;23.50;99.90;;;;;;5107051;28;20421;-68
2022/08/12 08:54:11;;;;;;;3.00;2.13;;;23.60;99.90;;;;;;5108689;28;20878;-68
2022/08/12 08:56:42;;;;;;;1.83;1.70;;;23.70;99.90;;;;;;5106364;28;20551;-68
2022/08/12 08:59:08;;;;;;;2.30;1.80;;;23.70;99.90;;;;;;5106341;28;20396;-68
2022/08/12 09:01:33;;;;;;;1.73;1.60;;;23.80;99.90;;;;;;5105287;28;20376;-67
2022/08/12 09:03:59;;;;;;;5.50;2.50;;;23.90;99.90;;;;;;5108862;28;20384;-67
2022/08/12 09:06:25;;;;;;;2.72;2.47;;;24.00;99.90;;;;;;5106902;28;20540;-67
2022/08/12 09:08:50;;;;;;;2.90;2.20;;;24.00;99.90;;;;;;5105373;28;20475;-67
2022/08/12 09:14:01;;;;;;;2.60;2.00;;;24.20;99.90;;;;;;5104102;28;20380;-67
2022/08/12 09:16:27;;;;;;;1.65;1.55;;;24.20;99.90;;;;;;5106027;28;20391;-67
2022/08/12 09:18:52;;;;;;;1.83;1.73;;;24.20;99.90;;;;;;5105855;28;20376;-67
2022/08/12 09:21:20;;;;;;;2.07;1.70;;;24.30;99.90;;;;;;5104990;28;20380;-67
2022/08/12 09:23:49;;;;;;;1.85;1.75;;;24.30;99.90;;;;;;5102438;28;20389;-67
2022/08/12 09:26:17;;;;;;;2.90;1.90;;;24.40;99.90;;;;;;5105412;28;20399;-67
2022/08/12 09:28:46;;;;;;;1.60;1.50;;;24.50;99.90;;;;;;5107201;28;20392;-67
2022/08/12 09:31:11;;;;;;;2.10;1.70;;;24.50;99.90;;;;;;5109859;27;20388;-67
2022/08/12 09:33:37;;;;;;;3.33;1.90;;;24.60;99.90;;;;;;5110337;28;20388;-68
2022/08/12 09:36:03;;;;;;;3.03;2.33;;;24.60;99.90;;;;;;5106843;28;20506;-67
2022/08/12 09:38:30;;;;;;;4.43;1.80;;;24.70;99.90;;;;;;5108815;28;20388;-67
2022/08/12 09:40:56;;;;;;;2.25;1.77;;;24.80;99.90;;;;;;5105856;28;20487;-67
2022/08/12 09:46:07;;;;;;;3.22;2.13;;;24.90;99.90;;;;;;5097953;28;20376;-68
2022/08/12 09:48:33;;;;;;;2.05;1.95;;;24.90;99.90;;;;;;5096272;28;20384;-67
2022/08/12 09:51:00;;;;;;;2.30;1.80;;;25.00;99.90;;;;;;5096329;28;21025;-67
2022/08/12 09:53:26;;;;;;;5.32;1.80;;;25.00;99.90;;;;;;5094950;28;20766;-69
2022/08/12 09:55:57;;;;;;;2.05;1.83;;;25.10;99.90;;;;;;5096771;28;20630;-68
2022/08/12 09:58:28;;;;;;;2.53;1.92;;;25.10;99.90;;;;;;5097934;28;20380;-68
2022/08/12 10:01:05;;;;;;;3.90;1.88;;;25.20;99.90;;;;;;5097780;28;20388;-67
2022/08/12 10:03:32;;;;;;;2.00;1.50;;;25.20;99.90;;;;;;5098879;28;20485;-67
2022/08/12 10:06:00;;;;;;;2.93;2.00;;;25.20;99.90;;;;;;5097482;28;20495;-68
2022/08/12 10:08:29;;;;;;;3.30;1.50;;;25.30;99.90;;;;;;5096199;28;20460;-67
2022/08/12 10:13:40;;;;;;;2.80;1.90;;;25.40;99.90;;;;;;5098173;28;20797;-68
2022/08/12 10:16:32;;;;;;;3.40;1.87;;;25.50;99.90;;;;;;5093811;28;20756;-68
2022/08/12 10:19:04;;;;;;;2.85;1.70;;;25.60;99.90;;;;;;5089541;27;20478;-67
2022/08/12 10:21:35;;;;;;;2.60;2.00;;;25.60;99.90;;;;;;5096707;28;20376;-69
2022/08/12 10:24:05;;;;;;;4.07;2.00;;;25.60;99.90;;;;;;5094582;28;20391;-69
2022/08/12 10:32:06;;;;;;;2.63;1.98;;;25.80;99.90;;;;;;5096120;28;20452;-68
2022/08/12 10:34:32;;;;;;;6.25;2.42;;;25.90;99.90;;;;;;5096104;28;20395;-68
2022/08/12 10:36:59;;;;;;;4.97;1.90;;;25.90;99.90;;;;;;5097538;28;20392;-67
2022/08/12 10:39:27;;;;;;;3.45;2.00;;;26.00;99.90;;;;;;5098453;28;20373;-68
2022/08/12 10:44:37;;;;;;;2.08;1.92;;;26.10;99.90;;;;;;5099304;28;20380;-68
2022/08/12 10:47:03;;;;;;;2.27;1.83;;;26.10;99.90;;;;;;5100555;28;20368;-68
2022/08/12 10:49:33;;;;;;;2.78;1.80;;;26.20;99.90;;;;;;5098586;28;20550;-68
2022/08/12 10:52:05;;;;;;;2.55;1.67;;;26.20;99.90;;;;;;5096362;28;20594;-68
2022/08/12 10:54:31;;;;;;;1.50;1.40;;;26.30;99.90;;;;;;5095045;28;20703;-68
2022/08/12 10:56:59;;;;;;;5.95;2.10;;;26.40;99.90;;;;;;5095620;28;20465;-68
2022/08/12 10:59:27;;;;;;;4.10;1.77;;;26.50;99.90;;;;;;5095660;28;20433;-68
2022/08/12 11:01:57;;;;;;;1.80;1.60;;;26.60;99.90;;;;;;5099749;28;20380;-68
2022/08/12 11:04:24;;;;;;;1.98;1.58;;;26.60;99.90;;;;;;5102616;28;20376;-68
2022/08/12 11:06:50;;;;;;;4.30;1.73;;;26.60;99.90;;;;;;5104631;28;20380;-68
2022/08/12 11:09:17;;;;;;;2.38;1.70;;;26.80;99.90;;;;;;5101406;28;20441;-68
2022/08/12 11:11:47;;;;;;;1.92;1.73;;;26.80;99.90;;;;;;5098768;28;20396;-69
2022/08/12 11:14:26;;;;;;;2.50;1.60;;;26.80;99.90;;;;;;5100279;28;20411;-68
2022/08/12 11:16:56;;;;;;;3.47;1.75;;;26.80;99.90;;;;;;5097835;28;20445;-68
2022/08/12 11:19:30;;;;;;;1.80;1.60;;;26.90;99.90;;;;;;5093888;28;20387;-69
2022/08/12 11:21:56;;;;;;;3.08;1.65;;;27.00;99.90;;;;;;5086863;28;20463;-69
2022/08/12 11:24:23;;;;;;;3.53;1.50;;;27.30;99.90;;;;;;5091801;28;20380;-68
2022/08/12 11:26:49;;;;;;;2.20;1.50;;;27.50;99.90;;;;;;5099753;28;20403;-69
2022/08/12 11:29:17;;;;;;;3.30;1.80;;;27.80;99.90;;;;;;5098323;28;20391;-69
2022/08/12 11:31:42;;;;;;;2.22;1.70;;;28.10;99.90;;;;;;5100512;28;20391;-69
2022/08/12 11:34:08;;;;;;;2.60;1.63;;;28.30;99.90;;;;;;5100184;28;20388;-69
2022/08/12 11:36:33;;;;;;;2.70;1.80;;;28.60;99.60;;;;;;5096590;28;20397;-69
2022/08/12 11:38:59;;;;;;;1.73;1.63;;;28.80;98.10;;;;;;5099766;28;20377;-69
2022/08/12 11:41:25;;;;;;;2.93;1.60;;;29.10;98.40;;;;;;5097237;28;20425;-69
2022/08/12 11:43:50;;;;;;;2.53;1.63;;;29.30;99.40;;;;;;5098838;28;20721;-69
2022/08/12 11:46:17;;;;;;;1.60;1.50;;;29.50;99.10;;;;;;5100462;28;20383;-69
2022/08/12 11:48:43;;;;;;;2.25;1.65;;;29.70;99.10;;;;;;5100770;28;20430;-69
2022/08/12 11:51:09;;;;;;;2.08;1.70;;;29.90;99.30;;;;;;5104184;28;20491;-69
2022/08/12 11:53:35;;;;;;;3.33;1.80;;;30.00;98.70;;;;;;5106151;28;20380;-69
2022/08/12 11:56:04;;;;;;;2.45;1.50;;;30.20;98.10;;;;;;5105478;28;20396;-69
2022/08/12 11:58:29;;;;;;;2.40;1.60;;;30.30;98.30;;;;;;5109344;28;20486;-69
2022/08/12 12:00:55;;;;;;;2.20;1.57;;;30.40;98.80;;;;;;5108729;28;20416;-69
2022/08/12 12:03:21;;;;;;;2.95;1.52;;;30.60;97.30;;;;;;5107557;28;20381;-69
2022/08/12 12:05:46;;;;;;;2.37;1.63;;;30.70;97.10;;;;;;5109122;28;20384;-69
2022/08/12 12:08:38;;;;;;;1.55;1.45;;;30.90;95.90;;;;;;5107560;28;20384;-69
2022/08/12 12:11:04;;;;;;;2.28;1.60;;;31.00;95.20;;;;;;5103235;28;20415;-69
2022/08/12 12:13:30;;;;;;;2.57;1.40;;;31.10;96.40;;;;;;5105843;28;20380;-69
2022/08/12 12:15:55;;;;;;;2.85;1.70;;;31.30;93.40;;;;;;5103355;28;20383;-69
2022/08/12 12:18:28;;;;;;;2.70;1.60;;;31.40;93.50;;;;;;5101521;28;20380;-69
2022/08/12 12:20:55;;;;;;;1.55;1.38;;;31.50;92.50;;;;;;5100199;28;20385;-68
2022/08/12 12:23:21;;;;;;;2.22;1.60;;;31.60;92.20;;;;;;5100536;27;20894;-69
2022/08/12 12:25:47;;;;;;;2.43;1.60;;;31.70;90.50;;;;;;5099687;28;20495;-70
2022/08/12 12:28:14;;;;;;;1.73;1.57;;;31.80;94.60;;;;;;5099589;28;20389;-70
2022/08/12 12:30:40;;;;;;;3.30;1.77;;;31.70;94.20;;;;;;5103528;28;20400;-70
2022/08/12 12:33:07;;;;;;;2.73;1.67;;;30.70;94.80;;;;;;5104117;28;20442;-70
2022/08/12 12:35:34;;;;;;;1.93;1.57;;;30.60;91.60;;;;;;5107712;28;20400;-70
2022/08/12 12:38:01;;;;;;;4.78;1.70;;;30.30;93.80;;;;;;5106271;28;20422;-70
2022/08/12 12:40:28;;;;;;;4.55;1.80;;;30.20;94.00;;;;;;5106182;28;20392;-69
2022/08/12 12:42:54;;;;;;;2.40;1.60;;;30.50;92.30;;;;;;5107226;28;20772;-68
2022/08/12 12:45:21;;;;;;;1.65;1.55;;;31.10;93.40;;;;;;5108275;28;20469;-68
2022/08/12 12:47:59;;;;;;;2.40;1.45;;;31.70;92.10;;;;;;5107888;28;20380;-68
2022/08/12 12:50:26;;;;;;;2.53;1.48;;;32.10;91.20;;;;;;5109483;28;20491;-69
2022/08/12 12:52:52;;;;;;;2.13;1.63;;;32.30;90.20;;;;;;5105839;28;20477;-69
2022/08/12 12:55:18;;;;;;;1.55;1.45;;;32.60;90.60;;;;;;5103305;28;20380;-69
2022/08/12 12:57:44;;;;;;;6.95;1.50;;;32.80;90.60;;;;;;5104879;28;20400;-69
2022/08/12 13:00:15;;;;;;;4.97;1.98;;;33.00;88.70;;;;;;5104483;28;20649;-69
2022/08/12 13:02:51;;;;;;;2.27;1.97;;;32.90;86.20;;;;;;5106267;28;20388;-69
2022/08/12 13:05:19;;;;;;;1.90;1.70;;;33.10;86.80;;;;;;5100262;28;20808;-69
2022/08/12 13:07:44;;;;;;;2.93;1.80;;;33.30;85.40;;;;;;5096693;28;20782;-69
2022/08/12 13:10:10;;;;;;;2.33;1.65;;;33.30;83.40;;;;;;5100904;28;20399;-69
2022/08/12 13:12:36;;;;;;;3.20;1.60;;;33.50;84.30;;;;;;5096128;28;20668;-69
2022/08/12 13:15:03;;;;;;;1.93;1.60;;;33.70;80.90;;;;;;5097330;28;20438;-69
2022/08/12 13:17:30;;;;;;;2.60;1.42;;;33.70;79.70;;;;;;5096720;28;20444;-69
2022/08/12 13:20:05;;;;;;;2.25;1.40;;;33.90;79.50;;;;;;5095533;28;20449;-69
2022/08/12 13:22:32;;;;;;;1.50;1.40;;;34.00;78.90;;;;;;5097247;28;20484;-69
2022/08/12 13:24:58;;;;;;;1.55;1.42;;;34.20;79.50;;;;;;5104130;28;20440;-69
2022/08/12 13:27:46;;;;;;;2.97;1.70;;;34.30;80.00;;;;;;5103637;28;20411;-69
2022/08/12 13:30:15;;;;;;;4.80;1.88;;;34.30;80.20;;;;;;5102214;28;20392;-69
2022/08/12 13:32:49;;;;;;;1.50;1.40;;;34.20;78.00;;;;;;5104628;28;20380;-69
2022/08/12 13:35:15;;;;;;;2.60;1.70;;;34.50;79.30;;;;;;5102432;28;20411;-69
2022/08/12 13:37:52;;;;;;;3.45;1.60;;;34.60;77.90;;;;;;5100441;28;20395;-69
2022/08/12 13:40:19;;;;;;;3.42;1.65;;;34.80;77.70;;;;;;5095812;28;20453;-69
2022/08/12 13:42:48;;;;;;;2.37;1.60;;;34.90;76.30;;;;;;5096150;28;20396;-69
2022/08/12 13:45:15;;;;;;;1.90;1.40;;;35.20;76.10;;;;;;5098169;28;20557;-69
2022/08/12 13:48:01;;;;;;;1.98;1.60;;;35.40;76.00;;;;;;5098055;28;20591;-69
2022/08/12 13:50:32;;;;;;;2.28;1.70;;;35.60;74.60;;;;;;5100267;28;20611;-69
2022/08/12 13:53:04;;;;;;;2.55;1.67;;;35.80;74.70;;;;;;5102220;28;20377;-69
2022/08/12 13:55:30;;;;;;;3.92;1.73;;;35.70;70.00;;;;;;5099499;28;20744;-69
2022/08/12 13:57:56;;;;;;;3.50;1.73;;;35.60;68.30;;;;;;5101815;28;20518;-69
2022/08/12 14:00:23;;;;;;;3.30;1.92;;;35.30;70.20;;;;;;5101494;28;20398;-69
2022/08/12 14:02:48;;;;;;;2.10;1.45;;;35.50;70.90;;;;;;5102681;28;20388;-69
2022/08/12 14:05:16;;;;;;;3.05;1.70;;;35.70;69.60;;;;;;5104077;28;20448;-69
2022/08/12 14:07:59;;;;;;;3.13;1.50;;;36.00;67.00;;;;;;5103284;28;20627;-69
2022/08/12 14:10:36;;;;;;;2.10;1.90;;;36.30;68.30;;;;;;5102856;28;20742;-69
2022/08/12 14:13:15;;;;;;;2.38;1.40;;;36.10;67.70;;;;;;5102853;28;20380;-69
2022/08/12 14:15:46;;;;;;;2.20;1.30;;;36.20;65.20;;;;;;5098360;27;20372;-69
2022/08/12 14:18:38;;;;;;;4.20;1.48;;;36.20;61.60;;;;;;5097827;28;20484;-69
2022/08/12 14:21:11;;;;;;;2.33;1.50;;;36.10;59.70;;;;;;5095000;28;20392;-69
2022/08/12 14:23:41;;;;;;;2.30;1.95;;;35.90;59.70;;;;;;5099080;28;20384;-69
2022/08/12 14:26:09;;;;;;;2.65;2.10;;;36.30;60.50;;;;;;5097951;28;20488;-69
2022/08/12 14:28:36;;;;;;;6.60;2.40;;;36.10;58.90;;;;;;5097569;28;20556;-69
2022/08/12 14:31:06;;;;;;;4.75;2.00;;;36.20;58.70;;;;;;5108079;28;20399;-69
2022/08/12 14:33:34;;;;;;;1.75;1.52;;;36.40;59.20;;;;;;5109131;28;20380;-69
2022/08/12 14:36:02;;;;;;;1.77;1.50;;;36.70;59.00;;;;;;5108906;28;20492;-69
2022/08/12 14:38:30;;;;;;;3.08;1.65;;;37.00;58.60;;;;;;5107767;28;20380;-69
2022/08/12 14:40:58;;;;;;;1.98;1.70;;;37.30;59.90;;;;;;5106695;28;20799;-69
2022/08/12 14:43:29;;;;;;;2.00;1.35;;;37.20;57.70;;;;;;5107059;28;20904;-69
2022/08/12 14:45:55;;;;;;;2.33;1.73;;;37.50;57.40;;;;;;5103325;28;20408;-69
2022/08/12 14:48:21;;;;;;;4.47;1.60;;;37.40;56.40;;;;;;5104785;28;20465;-69
2022/08/12 14:50:48;;;;;;;3.40;1.73;;;36.80;55.20;;;;;;5103175;28;20396;-69